Station History

Weather Underground - logo

Station Historical Data
Daily Summary for February 5, 2018 Units:  Both    English   Metric
« Previous Day
Next Day »
Daily Weekly Monthly Yearly Custom
  High: Low: Average:
Temperature: 73.3 °F /  22.9 °C 43.7 °F /  6.5 °C 59.6 °F /  15.3 °C
Dew Point: 55.6 °F /  13.1 °C 42.1 °F /  5.6 °C 50.7 °F /  10.4 °C
Humidity: 96 % 49 % 74 %
Wind Speed: 4.6 mph /  7.4 km/h - 0.6 mph /  1 km/h
Wind Gust: 4.6 mph /  7.4 km/h - -
Wind:- - West
Pressure: 30.08 in /  1018.5 hPa 29.94 in /  1013.8 hPa -
Precipitation: 0.00 in /  0 mm    
Historical Graphs
 
 
Tabular Data for February 5, 2018
Time Temperature Dew Point Pressure Wind Wind Speed Wind Gust Humidity Rainfall Rate (Hourly)
00:02 50.6 °F /  10.3 °C 47.2 °F /  8.4 °C 30.07 in /  1018.2 hPa Calm     88 % 0.00 in /  0 mm
00:07 49.9 °F /  9.9 °C 46.5 °F /  8.1 °C 30.07 in /  1018.2 hPa Calm     88 % 0.00 in /  0 mm
00:12 49.4 °F /  9.7 °C 46.3 °F /  7.9 °C 30.07 in /  1018.2 hPa Calm     89 % 0.00 in /  0 mm
00:17 49.2 °F /  9.6 °C 46.4 °F /  8 °C 30.07 in /  1018.2 hPa Calm     90 % 0.00 in /  0 mm
00:22 49.0 °F /  9.4 °C 46.2 °F /  7.9 °C 30.07 in /  1018.2 hPa Calm     90 % 0.00 in /  0 mm
00:27 48.7 °F /  9.3 °C 45.9 °F /  7.7 °C 30.07 in /  1018.2 hPa Calm     90 % 0.00 in /  0 mm
00:32 48.4 °F /  9.1 °C 45.6 °F /  7.6 °C 30.07 in /  1018.2 hPa Calm     90 % 0.00 in /  0 mm
00:37 48.3 °F /  9.1 °C 45.8 °F /  7.7 °C 30.07 in /  1018.2 hPa Calm     91 % 0.00 in /  0 mm
00:42 48.1 °F /  8.9 °C 45.3 °F /  7.4 °C 30.07 in /  1018.2 hPa Calm     90 % 0.00 in /  0 mm
00:47 47.9 °F /  8.8 °C 45.1 °F /  7.3 °C 30.07 in /  1018.2 hPa Calm     90 % 0.00 in /  0 mm
00:52 47.6 °F /  8.7 °C 44.8 °F /  7.1 °C 30.06 in /  1017.8 hPa Calm     90 % 0.00 in /  0 mm
00:57 47.4 °F /  8.6 °C 44.9 °F /  7.2 °C 30.07 in /  1018.2 hPa Calm     91 % 0.00 in /  0 mm
01:02 47.3 °F /  8.5 °C 44.8 °F /  7.1 °C 30.06 in /  1017.8 hPa Calm     91 % 0.00 in /  0 mm
01:07 47.3 °F /  8.5 °C 45.1 °F /  7.3 °C 30.06 in /  1017.8 hPa Calm     92 % 0.00 in /  0 mm
01:12 47.3 °F /  8.5 °C 45.1 °F /  7.3 °C 30.06 in /  1017.8 hPa Calm     92 % 0.00 in /  0 mm
01:17 47.3 °F /  8.5 °C 45.1 °F /  7.3 °C 30.07 in /  1018.2 hPa Calm     92 % 0.00 in /  0 mm
01:22 47.5 °F /  8.6 °C 45.3 °F /  7.4 °C 30.07 in /  1018.2 hPa Calm     92 % 0.00 in /  0 mm
01:27 47.6 °F /  8.7 °C 45.4 °F /  7.4 °C 30.07 in /  1018.2 hPa Calm     92 % 0.00 in /  0 mm
01:32 47.6 °F /  8.7 °C 45.4 °F /  7.4 °C 30.07 in /  1018.2 hPa Calm     92 % 0.00 in /  0 mm
06:02 46.2 °F /  7.9 °C 44.8 °F /  7.1 °C 30.05 in /  1017.5 hPa Calm     95 % 0.00 in /  0 mm
06:07 45.8 °F /  7.7 °C 44.2 °F /  6.8 °C 30.05 in /  1017.5 hPa Calm     94 % 0.00 in /  0 mm
06:12 45.5 °F /  7.5 °C 43.9 °F /  6.6 °C 30.05 in /  1017.5 hPa Calm     94 % 0.00 in /  0 mm
06:17 45.3 °F /  7.4 °C 43.7 °F /  6.5 °C 30.06 in /  1017.8 hPa Calm     94 % 0.00 in /  0 mm
06:22 45.1 °F /  7.3 °C 43.5 °F /  6.4 °C 30.06 in /  1017.8 hPa Calm     94 % 0.00 in /  0 mm
06:27 44.4 °F /  6.9 °C 42.5 °F /  5.8 °C 30.06 in /  1017.8 hPa Calm     93 % 0.00 in /  0 mm
06:32 44.1 °F /  6.7 °C 42.2 °F /  5.7 °C 30.06 in /  1017.8 hPa Calm     93 % 0.00 in /  0 mm
06:37 44.1 °F /  6.7 °C 42.5 °F /  5.8 °C 30.07 in /  1018.2 hPa Calm     94 % 0.00 in /  0 mm
06:42 44.0 °F /  6.7 °C 42.4 °F /  5.8 °C 30.07 in /  1018.2 hPa Calm     94 % 0.00 in /  0 mm
06:47 43.9 °F /  6.6 °C 42.3 °F /  5.7 °C 30.07 in /  1018.2 hPa Calm     94 % 0.00 in /  0 mm
06:52 43.7 °F /  6.5 °C 42.1 °F /  5.6 °C 30.07 in /  1018.2 hPa Calm     94 % 0.00 in /  0 mm
06:57 43.7 °F /  6.5 °C 42.1 °F /  5.6 °C 30.07 in /  1018.2 hPa Calm     94 % 0.00 in /  0 mm
07:02 43.7 °F /  6.5 °C 42.1 °F /  5.6 °C 30.07 in /  1018.2 hPa Calm     94 % 0.00 in /  0 mm
07:07 43.7 °F /  6.5 °C 42.1 °F /  5.6 °C 30.07 in /  1018.2 hPa Calm     94 % 0.00 in /  0 mm
07:12 43.9 °F /  6.6 °C 42.6 °F /  5.9 °C 30.07 in /  1018.2 hPa Calm     95 % 0.00 in /  0 mm
07:17 44.0 °F /  6.7 °C 42.7 °F /  5.9 °C 30.07 in /  1018.2 hPa Calm     95 % 0.00 in /  0 mm
07:22 44.0 °F /  6.7 °C 42.7 °F /  5.9 °C 30.07 in /  1018.2 hPa Calm     95 % 0.00 in /  0 mm
07:27 44.0 °F /  6.7 °C 42.7 °F /  5.9 °C 30.08 in /  1018.5 hPa Calm     95 % 0.00 in /  0 mm
07:32 44.4 °F /  6.9 °C 43.1 °F /  6.2 °C 30.08 in /  1018.5 hPa Calm     95 % 0.00 in /  0 mm
07:37 44.7 °F /  7.1 °C 43.4 °F /  6.3 °C 30.08 in /  1018.5 hPa Calm     95 % 0.00 in /  0 mm
07:43 45.1 °F /  7.3 °C 43.8 °F /  6.6 °C 30.08 in /  1018.5 hPa Calm     95 % 0.00 in /  0 mm
07:48 45.6 °F /  7.6 °C 44.3 °F /  6.8 °C 30.07 in /  1018.2 hPa Calm     95 % 0.00 in /  0 mm
07:53 46.3 °F /  7.9 °C 45.2 °F /  7.3 °C 30.07 in /  1018.2 hPa Calm     96 % 0.00 in /  0 mm
07:58 46.9 °F /  8.3 °C 45.8 °F /  7.7 °C 30.07 in /  1018.2 hPa Calm     96 % 0.00 in /  0 mm
08:03 47.6 °F /  8.7 °C 46.5 °F /  8.1 °C 30.07 in /  1018.2 hPa Calm     96 % 0.00 in /  0 mm
08:08 48.3 °F /  9.1 °C 46.9 °F /  8.3 °C 30.07 in /  1018.2 hPa Calm     95 % 0.00 in /  0 mm
08:13 49.1 °F /  9.5 °C 47.4 °F /  8.6 °C 30.07 in /  1018.2 hPa Calm     94 % 0.00 in /  0 mm
08:18 49.8 °F /  9.9 °C 47.9 °F /  8.8 °C 30.07 in /  1018.2 hPa Calm     93 % 0.00 in /  0 mm
08:23 50.6 °F /  10.3 °C 48.4 °F /  9.1 °C 30.07 in /  1018.2 hPa Calm     92 % 0.00 in /  0 mm
08:28 51.5 °F /  10.8 °C 49.0 °F /  9.4 °C 30.07 in /  1018.2 hPa Calm     91 % 0.00 in /  0 mm
08:33 52.2 °F /  11.2 °C 49.4 °F /  9.7 °C 30.07 in /  1018.2 hPa Calm     90 % 0.00 in /  0 mm
08:38 53.5 °F /  11.9 °C 50.3 °F /  10.2 °C 30.07 in /  1018.2 hPa Calm     89 % 0.00 in /  0 mm
08:43 54.7 °F /  12.6 °C 50.9 °F /  10.5 °C 30.07 in /  1018.2 hPa Calm     87 % 0.00 in /  0 mm
08:48 55.9 °F /  13.3 °C 51.5 °F /  10.8 °C 30.07 in /  1018.2 hPa Calm     85 % 0.00 in /  0 mm
08:53 57.2 °F /  14 °C 52.1 °F /  11.2 °C 30.07 in /  1018.2 hPa Calm     83 % 0.00 in /  0 mm
08:58 58.0 °F /  14.4 °C 52.5 °F /  11.4 °C 30.07 in /  1018.2 hPa Calm     82 % 0.00 in /  0 mm
09:03 58.6 °F /  14.8 °C 52.8 °F /  11.6 °C 30.07 in /  1018.2 hPa Calm     81 % 0.00 in /  0 mm
09:08 58.9 °F /  14.9 °C 53.1 °F /  11.7 °C 30.07 in /  1018.2 hPa Calm     81 % 0.00 in /  0 mm
09:13 58.7 °F /  14.8 °C 52.2 °F /  11.2 °C 30.07 in /  1018.2 hPa Calm     79 % 0.00 in /  0 mm
09:18 59.1 °F /  15.1 °C 52.6 °F /  11.4 °C 30.07 in /  1018.2 hPa Calm     79 % 0.00 in /  0 mm
09:23 59.3 °F /  15.2 °C 52.8 °F /  11.6 °C 30.07 in /  1018.2 hPa SSE 1.2 mph /  1.9 km/h 1.2 mph /  1.9 km/h 79 % 0.00 in /  0 mm
09:28 59.7 °F /  15.4 °C 52.8 °F /  11.6 °C 30.07 in /  1018.2 hPa South 1.2 mph /  1.9 km/h 1.2 mph /  1.9 km/h 78 % 0.00 in /  0 mm
09:33 60.1 °F /  15.6 °C 52.9 °F /  11.6 °C 30.06 in /  1017.8 hPa SE 1.2 mph /  1.9 km/h   77 % 0.00 in /  0 mm
09:38 60.5 °F /  15.8 °C 52.9 °F /  11.6 °C 30.06 in /  1017.8 hPa Calm     76 % 0.00 in /  0 mm
09:43 60.6 °F /  15.9 °C 52.6 °F /  11.4 °C 30.07 in /  1018.2 hPa Calm     75 % 0.00 in /  0 mm
09:48 61.2 °F /  16.2 °C 52.8 °F /  11.6 °C 30.06 in /  1017.8 hPa SE 1.2 mph /  1.9 km/h   74 % 0.00 in /  0 mm
09:53 61.4 °F /  16.3 °C 52.3 °F /  11.3 °C 30.06 in /  1017.8 hPa Calm     72 % 0.00 in /  0 mm
09:58 61.4 °F /  16.3 °C 52.7 °F /  11.5 °C 30.07 in /  1018.2 hPa Calm     73 % 0.00 in /  0 mm
10:03 61.9 °F /  16.6 °C 53.1 °F /  11.7 °C 30.06 in /  1017.8 hPa Calm     73 % 0.00 in /  0 mm
10:08 62.9 °F /  17.2 °C 53.7 °F /  12.1 °C 30.06 in /  1017.8 hPa Calm     72 % 0.00 in /  0 mm
10:13 63.6 °F /  17.6 °C 54.0 °F /  12.2 °C 30.06 in /  1017.8 hPa Calm     71 % 0.00 in /  0 mm
10:18 64.1 °F /  17.8 °C 54.1 °F /  12.3 °C 30.07 in /  1018.2 hPa Calm     70 % 0.00 in /  0 mm
10:23 64.6 °F /  18.1 °C 54.6 °F /  12.6 °C 30.07 in /  1018.2 hPa Calm     70 % 0.00 in /  0 mm
10:28 65.0 °F /  18.3 °C 54.6 °F /  12.6 °C 30.06 in /  1017.8 hPa SE 1.2 mph /  1.9 km/h   69 % 0.00 in /  0 mm
10:33 65.1 °F /  18.4 °C 54.3 °F /  12.4 °C 30.07 in /  1018.2 hPa South 1.2 mph /  1.9 km/h 1.2 mph /  1.9 km/h 68 % 0.00 in /  0 mm
10:38 65.4 °F /  18.6 °C 54.2 °F /  12.3 °C 30.07 in /  1018.2 hPa NW 1.2 mph /  1.9 km/h 1.2 mph /  1.9 km/h 67 % 0.00 in /  0 mm
10:43 65.4 °F /  18.6 °C 55.0 °F /  12.8 °C 30.07 in /  1018.2 hPa Calm     69 % 0.00 in /  0 mm
10:48 65.2 °F /  18.4 °C 54.4 °F /  12.4 °C 30.07 in /  1018.2 hPa WNW 2.3 mph /  3.7 km/h 2.3 mph /  3.7 km/h 68 % 0.00 in /  0 mm
10:53 64.9 °F /  18.3 °C 53.7 °F /  12.1 °C 30.07 in /  1018.2 hPa NW 2.3 mph /  3.7 km/h 2.3 mph /  3.7 km/h 67 % 0.00 in /  0 mm
10:58 65.0 °F /  18.3 °C 53.8 °F /  12.1 °C 30.07 in /  1018.2 hPa North 2.3 mph /  3.7 km/h 2.3 mph /  3.7 km/h 67 % 0.00 in /  0 mm
11:03 65.4 °F /  18.6 °C 54.2 °F /  12.3 °C 30.07 in /  1018.2 hPa NNW 2.3 mph /  3.7 km/h 2.3 mph /  3.7 km/h 67 % 0.00 in /  0 mm
11:08 65.4 °F /  18.6 °C 53.3 °F /  11.8 °C 30.07 in /  1018.2 hPa NW 3.5 mph /  5.6 km/h 3.5 mph /  5.6 km/h 65 % 0.00 in /  0 mm
11:13 65.5 °F /  18.6 °C 54.2 °F /  12.3 °C 30.07 in /  1018.2 hPa Calm     67 % 0.00 in /  0 mm
11:18 66.0 °F /  18.9 °C 53.9 °F /  12.2 °C 30.06 in /  1017.8 hPa NW 1.2 mph /  1.9 km/h 1.2 mph /  1.9 km/h 65 % 0.00 in /  0 mm
11:23 66.4 °F /  19.1 °C 55.1 °F /  12.8 °C 30.06 in /  1017.8 hPa Calm     67 % 0.00 in /  0 mm
11:28 67.4 °F /  19.7 °C 54.8 °F /  12.7 °C 30.06 in /  1017.8 hPa SSW 1.2 mph /  1.9 km/h 1.2 mph /  1.9 km/h 64 % 0.00 in /  0 mm
11:33 67.9 °F /  19.9 °C 55.3 °F /  12.9 °C 30.06 in /  1017.8 hPa NNW 1.2 mph /  1.9 km/h   64 % 0.00 in /  0 mm
11:38 67.8 °F /  19.9 °C 54.3 °F /  12.4 °C 30.06 in /  1017.8 hPa NW 3.5 mph /  5.6 km/h 3.5 mph /  5.6 km/h 62 % 0.00 in /  0 mm
11:43 67.6 °F /  19.8 °C 54.6 °F /  12.6 °C 30.05 in /  1017.5 hPa Calm     63 % 0.00 in /  0 mm
11:48 67.9 °F /  19.9 °C 55.3 °F /  12.9 °C 30.05 in /  1017.5 hPa NNW 1.2 mph /  1.9 km/h 1.2 mph /  1.9 km/h 64 % 0.00 in /  0 mm
11:53 68.1 °F /  20.1 °C 55.0 °F /  12.8 °C 30.05 in /  1017.5 hPa NW 3.5 mph /  5.6 km/h 3.5 mph /  5.6 km/h 63 % 0.00 in /  0 mm
11:58 68.0 °F /  20 °C 54.5 °F /  12.5 °C 30.04 in /  1017.2 hPa NE 2.3 mph /  3.7 km/h 2.3 mph /  3.7 km/h 62 % 0.00 in /  0 mm
12:03 68.0 °F /  20 °C 54.9 °F /  12.7 °C 30.04 in /  1017.2 hPa Calm     63 % 0.00 in /  0 mm
12:08 68.6 °F /  20.3 °C 54.6 °F /  12.6 °C 30.03 in /  1016.8 hPa Calm     61 % 0.00 in /  0 mm
12:13 69.0 °F /  20.6 °C 55.0 °F /  12.8 °C 30.03 in /  1016.8 hPa Calm     61 % 0.00 in /  0 mm
12:18 69.2 °F /  20.7 °C 55.2 °F /  12.9 °C 30.03 in /  1016.8 hPa NW 1.2 mph /  1.9 km/h 1.2 mph /  1.9 km/h 61 % 0.00 in /  0 mm
12:23 69.3 °F /  20.7 °C 55.3 °F /  12.9 °C 30.02 in /  1016.5 hPa NW 1.2 mph /  1.9 km/h 1.2 mph /  1.9 km/h 61 % 0.00 in /  0 mm
12:28 69.5 °F /  20.8 °C 55.5 °F /  13.1 °C 30.02 in /  1016.5 hPa Calm     61 % 0.00 in /  0 mm
12:33 69.5 °F /  20.8 °C 54.5 °F /  12.5 °C 30.01 in /  1016.1 hPa WNW 1.2 mph /  1.9 km/h   59 % 0.00 in /  0 mm
12:38 70.1 °F /  21.2 °C 55.6 °F /  13.1 °C 30.01 in /  1016.1 hPa Calm     60 % 0.00 in /  0 mm
12:43 70.3 °F /  21.3 °C 55.3 °F /  12.9 °C 30.01 in /  1016.1 hPa NNW 2.3 mph /  3.7 km/h 2.3 mph /  3.7 km/h 59 % 0.00 in /  0 mm
12:48 70.4 °F /  21.3 °C 54.4 °F /  12.4 °C 30.00 in /  1015.8 hPa NW 3.5 mph /  5.6 km/h 3.5 mph /  5.6 km/h 57 % 0.00 in /  0 mm
12:53 70.3 °F /  21.3 °C 54.3 °F /  12.4 °C 30.00 in /  1015.8 hPa WNW 2.3 mph /  3.7 km/h 2.3 mph /  3.7 km/h 57 % 0.00 in /  0 mm
12:58 70.3 °F /  21.3 °C 54.3 °F /  12.4 °C 30.00 in /  1015.8 hPa WNW 1.2 mph /  1.9 km/h   57 % 0.00 in /  0 mm
13:03 70.7 °F /  21.5 °C 54.7 °F /  12.6 °C 30.00 in /  1015.8 hPa WNW 1.2 mph /  1.9 km/h 1.2 mph /  1.9 km/h 57 % 0.00 in /  0 mm
13:08 70.9 °F /  21.6 °C 54.4 °F /  12.4 °C 30.00 in /  1015.8 hPa Calm   0.1 mph /  0.2 km/h 56 % 0.00 in /  0 mm
13:13 71.1 °F /  21.7 °C 55.1 °F /  12.8 °C 29.99 in /  1015.5 hPa Calm   0.1 mph /  0.2 km/h 57 % 0.00 in /  0 mm
13:18 71.5 °F /  21.9 °C 55.0 °F /  12.8 °C 29.99 in /  1015.5 hPa NE 2.0 mph /  3.2 km/h 2.0 mph /  3.2 km/h 56 % 0.00 in /  0 mm
13:23 71.7 °F /  22.1 °C 54.7 °F /  12.6 °C 29.98 in /  1015.1 hPa NW 1.2 mph /  1.9 km/h 1.2 mph /  1.9 km/h 55 % 0.00 in /  0 mm
13:28 72.0 °F /  22.2 °C 53.9 °F /  12.2 °C 29.98 in /  1015.1 hPa NW 3.5 mph /  5.6 km/h 3.5 mph /  5.6 km/h 53 % 0.00 in /  0 mm
13:34 72.2 °F /  22.3 °C 54.6 °F /  12.6 °C 29.98 in /  1015.1 hPa SW 1.2 mph /  1.9 km/h   54 % 0.00 in /  0 mm
13:39 72.6 °F /  22.6 °C 54.5 °F /  12.5 °C 29.97 in /  1014.8 hPa NNW 1.2 mph /  1.9 km/h 1.2 mph /  1.9 km/h 53 % 0.00 in /  0 mm
13:44 72.6 °F /  22.6 °C 54.5 °F /  12.5 °C 29.97 in /  1014.8 hPa NW 3.5 mph /  5.6 km/h 3.5 mph /  5.6 km/h 53 % 0.00 in /  0 mm
13:49 72.2 °F /  22.3 °C 54.1 °F /  12.3 °C 29.97 in /  1014.8 hPa NW 1.2 mph /  1.9 km/h 1.2 mph /  1.9 km/h 53 % 0.00 in /  0 mm
13:54 72.1 °F /  22.3 °C 54.0 °F /  12.2 °C 29.97 in /  1014.8 hPa SW 1.2 mph /  1.9 km/h 1.2 mph /  1.9 km/h 53 % 0.00 in /  0 mm
13:59 72.3 °F /  22.4 °C 54.2 °F /  12.3 °C 29.97 in /  1014.8 hPa Calm     53 % 0.00 in /  0 mm
14:04 72.6 °F /  22.6 °C 54.5 °F /  12.5 °C 29.97 in /  1014.8 hPa WNW 2.3 mph /  3.7 km/h 2.3 mph /  3.7 km/h 53 % 0.00 in /  0 mm
14:09 72.7 °F /  22.6 °C 54.1 °F /  12.3 °C 29.97 in /  1014.8 hPa Calm     52 % 0.00 in /  0 mm
14:14 73.0 °F /  22.8 °C 54.9 °F /  12.7 °C 29.96 in /  1014.4 hPa NE 1.2 mph /  1.9 km/h   53 % 0.00 in /  0 mm
14:19 73.2 °F /  22.9 °C 53.4 °F /  11.9 °C 29.96 in /  1014.4 hPa WSW 3.5 mph /  5.6 km/h 3.5 mph /  5.6 km/h 50 % 0.00 in /  0 mm
14:24 73.1 °F /  22.8 °C 53.9 °F /  12.2 °C 29.96 in /  1014.4 hPa WNW 1.2 mph /  1.9 km/h 1.2 mph /  1.9 km/h 51 % 0.00 in /  0 mm
14:29 72.9 °F /  22.7 °C 53.2 °F /  11.8 °C 29.96 in /  1014.4 hPa NW 3.5 mph /  5.6 km/h 3.5 mph /  5.6 km/h 50 % 0.00 in /  0 mm
14:34 72.8 °F /  22.7 °C 53.1 °F /  11.7 °C 29.96 in /  1014.4 hPa Calm     50 % 0.00 in /  0 mm
14:39 72.9 °F /  22.7 °C 53.2 °F /  11.8 °C 29.95 in /  1014.1 hPa Calm     50 % 0.00 in /  0 mm
14:44 72.8 °F /  22.7 °C 53.6 °F /  12 °C 29.95 in /  1014.1 hPa Calm     51 % 0.00 in /  0 mm
14:49 72.9 °F /  22.7 °C 53.7 °F /  12.1 °C 29.95 in /  1014.1 hPa SE 1.2 mph /  1.9 km/h   51 % 0.00 in /  0 mm
14:54 73.2 °F /  22.9 °C 52.9 °F /  11.6 °C 29.95 in /  1014.1 hPa WNW 1.2 mph /  1.9 km/h 1.2 mph /  1.9 km/h 49 % 0.00 in /  0 mm
14:59 73.3 °F /  22.9 °C 53.0 °F /  11.7 °C 29.95 in /  1014.1 hPa NW 3.5 mph /  5.6 km/h 3.5 mph /  5.6 km/h 49 % 0.00 in /  0 mm
15:04 73.0 °F /  22.8 °C 53.3 °F /  11.8 °C 29.95 in /  1014.1 hPa Calm   0.1 mph /  0.2 km/h 50 % 0.00 in /  0 mm
15:09 73.1 °F /  22.8 °C 53.4 °F /  11.9 °C 29.95 in /  1014.1 hPa NW 2.0 mph /  3.2 km/h 2.0 mph /  3.2 km/h 50 % 0.00 in /  0 mm
15:14 73.0 °F /  22.8 °C 53.3 °F /  11.8 °C 29.95 in /  1014.1 hPa NW 2.3 mph /  3.7 km/h 2.3 mph /  3.7 km/h 50 % 0.00 in /  0 mm
15:19 73.0 °F /  22.8 °C 53.3 °F /  11.8 °C 29.95 in /  1014.1 hPa WNW 4.6 mph /  7.4 km/h 4.6 mph /  7.4 km/h 50 % 0.00 in /  0 mm
15:24 72.9 °F /  22.7 °C 53.2 °F /  11.8 °C 29.95 in /  1014.1 hPa NW 3.5 mph /  5.6 km/h 3.5 mph /  5.6 km/h 50 % 0.00 in /  0 mm
15:29 72.8 °F /  22.7 °C 53.1 °F /  11.7 °C 29.95 in /  1014.1 hPa Calm     50 % 0.00 in /  0 mm
15:34 72.8 °F /  22.7 °C 53.6 °F /  12 °C 29.95 in /  1014.1 hPa NW 3.5 mph /  5.6 km/h 3.5 mph /  5.6 km/h 51 % 0.00 in /  0 mm
15:39 72.7 °F /  22.6 °C 53.0 °F /  11.7 °C 29.95 in /  1014.1 hPa NW 2.3 mph /  3.7 km/h 2.4 mph /  3.9 km/h 50 % 0.00 in /  0 mm
15:44 72.6 °F /  22.6 °C 52.9 °F /  11.6 °C 29.94 in /  1013.8 hPa NNW 3.5 mph /  5.6 km/h 3.5 mph /  5.6 km/h 50 % 0.00 in /  0 mm
15:49 72.5 °F /  22.5 °C 53.3 °F /  11.8 °C 29.94 in /  1013.8 hPa NW 2.3 mph /  3.7 km/h 2.3 mph /  3.7 km/h 51 % 0.00 in /  0 mm
15:54 72.4 °F /  22.4 °C 53.2 °F /  11.8 °C 29.94 in /  1013.8 hPa NW 1.2 mph /  1.9 km/h 1.2 mph /  1.9 km/h 51 % 0.00 in /  0 mm
15:59 72.3 °F /  22.4 °C 53.7 °F /  12.1 °C 29.94 in /  1013.8 hPa WNW 1.0 mph /  1.6 km/h 1.0 mph /  1.6 km/h 52 % 0.00 in /  0 mm
16:04 72.2 °F /  22.3 °C 53.1 °F /  11.7 °C 29.94 in /  1013.8 hPa WNW 2.3 mph /  3.7 km/h 2.3 mph /  3.7 km/h 51 % 0.00 in /  0 mm
16:09 72.0 °F /  22.2 °C 53.4 °F /  11.9 °C 29.94 in /  1013.8 hPa NW 2.3 mph /  3.7 km/h 2.3 mph /  3.7 km/h 52 % 0.00 in /  0 mm
16:14 71.9 °F /  22.2 °C 53.3 °F /  11.8 °C 29.94 in /  1013.8 hPa NW 2.3 mph /  3.7 km/h 2.3 mph /  3.7 km/h 52 % 0.00 in /  0 mm
16:19 71.8 °F /  22.1 °C 53.7 °F /  12.1 °C 29.94 in /  1013.8 hPa WNW 2.0 mph /  3.2 km/h 2.0 mph /  3.2 km/h 53 % 0.00 in /  0 mm
16:24 71.7 °F /  22.1 °C 54.7 °F /  12.6 °C 29.95 in /  1014.1 hPa NW 2.3 mph /  3.7 km/h 2.3 mph /  3.7 km/h 55 % 0.00 in /  0 mm
16:29 71.4 °F /  21.9 °C 53.9 °F /  12.2 °C 29.95 in /  1014.1 hPa NW 2.3 mph /  3.7 km/h 2.3 mph /  3.7 km/h 54 % 0.00 in /  0 mm
16:34 71.1 °F /  21.7 °C 54.1 °F /  12.3 °C 29.95 in /  1014.1 hPa NW 2.0 mph /  3.2 km/h 2.0 mph /  3.2 km/h 55 % 0.00 in /  0 mm
16:39 70.8 °F /  21.6 °C 53.8 °F /  12.1 °C 29.95 in /  1014.1 hPa NW 1.2 mph /  1.9 km/h 1.2 mph /  1.9 km/h 55 % 0.00 in /  0 mm
16:44 70.5 °F /  21.4 °C 53.6 °F /  12 °C 29.95 in /  1014.1 hPa NW 1.2 mph /  1.9 km/h 1.2 mph /  1.9 km/h 55 % 0.00 in /  0 mm
16:49 70.3 °F /  21.3 °C 53.9 °F /  12.2 °C 29.95 in /  1014.1 hPa WNW 1.2 mph /  1.9 km/h 1.2 mph /  1.9 km/h 56 % 0.00 in /  0 mm
16:54 70.0 °F /  21.1 °C 53.6 °F /  12 °C 29.95 in /  1014.1 hPa Calm     56 % 0.00 in /  0 mm
16:59 69.7 °F /  20.9 °C 53.3 °F /  11.8 °C 29.95 in /  1014.1 hPa Calm     56 % 0.00 in /  0 mm
17:04 69.2 °F /  20.7 °C 52.8 °F /  11.6 °C 29.95 in /  1014.1 hPa NW 1.2 mph /  1.9 km/h   56 % 0.00 in /  0 mm
17:09 68.8 °F /  20.4 °C 52.5 °F /  11.4 °C 29.95 in /  1014.1 hPa Calm     56 % 0.00 in /  0 mm
17:14 68.5 °F /  20.3 °C 52.7 °F /  11.5 °C 29.95 in /  1014.1 hPa Calm     57 % 0.00 in /  0 mm
17:19 67.9 °F /  19.9 °C 52.6 °F /  11.4 °C 29.95 in /  1014.1 hPa Calm     58 % 0.00 in /  0 mm
17:24 67.4 °F /  19.7 °C 52.1 °F /  11.2 °C 29.96 in /  1014.4 hPa Calm     58 % 0.00 in /  0 mm
17:29 67.2 °F /  19.6 °C 51.9 °F /  11.1 °C 29.96 in /  1014.4 hPa Calm     58 % 0.00 in /  0 mm
17:34 67.0 °F /  19.4 °C 52.2 °F /  11.2 °C 29.96 in /  1014.4 hPa Calm     59 % 0.00 in /  0 mm
17:39 66.5 °F /  19.2 °C 52.6 °F /  11.4 °C 29.96 in /  1014.4 hPa Calm     61 % 0.00 in /  0 mm
17:44 65.6 °F /  18.7 °C 52.2 °F /  11.2 °C 29.96 in /  1014.4 hPa Calm     62 % 0.00 in /  0 mm
17:49 64.7 °F /  18.2 °C 51.8 °F /  11 °C 29.97 in /  1014.8 hPa Calm     63 % 0.00 in /  0 mm
17:54 64.0 °F /  17.8 °C 52.0 °F /  11.1 °C 29.97 in /  1014.8 hPa Calm     65 % 0.00 in /  0 mm
17:59 63.2 °F /  17.3 °C 52.1 °F /  11.2 °C 29.97 in /  1014.8 hPa Calm     67 % 0.00 in /  0 mm
18:04 62.4 °F /  16.9 °C 52.1 °F /  11.2 °C 29.97 in /  1014.8 hPa Calm     69 % 0.00 in /  0 mm
18:09 62.2 °F /  16.8 °C 52.3 °F /  11.3 °C 29.97 in /  1014.8 hPa Calm     70 % 0.00 in /  0 mm
18:14 61.8 °F /  16.6 °C 51.9 °F /  11.1 °C 29.97 in /  1014.8 hPa Calm     70 % 0.00 in /  0 mm
18:19 61.3 °F /  16.3 °C 51.8 °F /  11 °C 29.98 in /  1015.1 hPa Calm     71 % 0.00 in /  0 mm
18:24 61.0 °F /  16.1 °C 51.9 °F /  11.1 °C 29.98 in /  1015.1 hPa Calm     72 % 0.00 in /  0 mm
18:29 60.8 °F /  16 °C 52.1 °F /  11.2 °C 29.98 in /  1015.1 hPa Calm     73 % 0.00 in /  0 mm
18:34 60.6 °F /  15.9 °C 51.9 °F /  11.1 °C 29.98 in /  1015.1 hPa Calm     73 % 0.00 in /  0 mm
18:39 60.4 °F /  15.8 °C 52.1 °F /  11.2 °C 29.98 in /  1015.1 hPa Calm     74 % 0.00 in /  0 mm
18:44 60.0 °F /  15.6 °C 51.7 °F /  10.9 °C 29.98 in /  1015.1 hPa Calm     74 % 0.00 in /  0 mm
18:49 59.6 °F /  15.3 °C 51.7 °F /  10.9 °C 29.98 in /  1015.1 hPa Calm     75 % 0.00 in /  0 mm
18:54 58.8 °F /  14.9 °C 51.2 °F /  10.7 °C 29.98 in /  1015.1 hPa Calm     76 % 0.00 in /  0 mm
18:59 58.2 °F /  14.6 °C 51.4 °F /  10.8 °C 29.98 in /  1015.1 hPa Calm     78 % 0.00 in /  0 mm
19:04 57.8 °F /  14.3 °C 51.3 °F /  10.7 °C 29.98 in /  1015.1 hPa Calm     79 % 0.00 in /  0 mm
19:09 57.6 °F /  14.2 °C 51.5 °F /  10.8 °C 29.99 in /  1015.5 hPa Calm     80 % 0.00 in /  0 mm
19:14 57.8 °F /  14.3 °C 51.7 °F /  10.9 °C 29.99 in /  1015.5 hPa Calm     80 % 0.00 in /  0 mm
19:19 57.8 °F /  14.3 °C 51.3 °F /  10.7 °C 29.99 in /  1015.5 hPa Calm     79 % 0.00 in /  0 mm
19:24 57.7 °F /  14.3 °C 51.2 °F /  10.7 °C 29.99 in /  1015.5 hPa Calm     79 % 0.00 in /  0 mm
19:29 57.8 °F /  14.3 °C 51.3 °F /  10.7 °C 29.99 in /  1015.5 hPa Calm     79 % 0.00 in /  0 mm
19:35 57.9 °F /  14.4 °C 51.4 °F /  10.8 °C 29.99 in /  1015.5 hPa Calm     79 % 0.00 in /  0 mm
19:40 57.9 °F /  14.4 °C 51.4 °F /  10.8 °C 29.99 in /  1015.5 hPa Calm     79 % 0.00 in /  0 mm
19:45 58.1 °F /  14.5 °C 51.6 °F /  10.9 °C 29.99 in /  1015.5 hPa Calm     79 % 0.00 in /  0 mm
19:50 58.1 °F /  14.5 °C 51.6 °F /  10.9 °C 29.99 in /  1015.5 hPa Calm     79 % 0.00 in /  0 mm
19:55 58.0 °F /  14.4 °C 51.5 °F /  10.8 °C 29.99 in /  1015.5 hPa Calm     79 % 0.00 in /  0 mm
20:00 57.8 °F /  14.3 °C 51.3 °F /  10.7 °C 29.99 in /  1015.5 hPa Calm     79 % 0.00 in /  0 mm
20:05 57.6 °F /  14.2 °C 51.1 °F /  10.6 °C 30.00 in /  1015.8 hPa Calm     79 % 0.00 in /  0 mm
20:10 57.2 °F /  14 °C 51.1 °F /  10.6 °C 30.00 in /  1015.8 hPa Calm     80 % 0.00 in /  0 mm
20:15 56.5 °F /  13.6 °C 50.7 °F /  10.4 °C 30.00 in /  1015.8 hPa Calm     81 % 0.00 in /  0 mm
20:20 56.1 °F /  13.4 °C 50.7 °F /  10.4 °C 30.00 in /  1015.8 hPa Calm     82 % 0.00 in /  0 mm
20:25 56.1 °F /  13.4 °C 51.0 °F /  10.6 °C 30.01 in /  1016.1 hPa Calm     83 % 0.00 in /  0 mm
20:30 56.0 °F /  13.3 °C 50.9 °F /  10.5 °C 30.00 in /  1015.8 hPa Calm     83 % 0.00 in /  0 mm
20:35 56.0 °F /  13.3 °C 50.9 °F /  10.5 °C 30.00 in /  1015.8 hPa SE 1.2 mph /  1.9 km/h   83 % 0.00 in /  0 mm
20:40 55.9 °F /  13.3 °C 50.8 °F /  10.4 °C 30.00 in /  1015.8 hPa Calm     83 % 0.00 in /  0 mm
20:45 55.8 °F /  13.2 °C 50.7 °F /  10.4 °C 30.00 in /  1015.8 hPa Calm     83 % 0.00 in /  0 mm
20:50 55.6 °F /  13.1 °C 50.5 °F /  10.3 °C 30.00 in /  1015.8 hPa SE 1.2 mph /  1.9 km/h 1.2 mph /  1.9 km/h 83 % 0.00 in /  0 mm
20:55 55.3 °F /  12.9 °C 50.5 °F /  10.3 °C 30.00 in /  1015.8 hPa SE 1.0 mph /  1.6 km/h   84 % 0.00 in /  0 mm
21:00 55.4 °F /  13 °C 50.6 °F /  10.3 °C 30.00 in /  1015.8 hPa Calm     84 % 0.00 in /  0 mm
21:05 55.4 °F /  13 °C 50.6 °F /  10.3 °C 30.00 in /  1015.8 hPa Calm     84 % 0.00 in /  0 mm
21:10 55.4 °F /  13 °C 50.6 °F /  10.3 °C 30.00 in /  1015.8 hPa Calm     84 % 0.00 in /  0 mm
21:15 55.2 °F /  12.9 °C 50.4 °F /  10.2 °C 30.00 in /  1015.8 hPa SE 1.2 mph /  1.9 km/h   84 % 0.00 in /  0 mm
21:20 54.9 °F /  12.7 °C 50.5 °F /  10.3 °C 30.00 in /  1015.8 hPa Calm     85 % 0.00 in /  0 mm
21:25 54.8 °F /  12.7 °C 50.4 °F /  10.2 °C 30.00 in /  1015.8 hPa Calm     85 % 0.00 in /  0 mm
21:30 54.6 °F /  12.6 °C 50.2 °F /  10.1 °C 30.00 in /  1015.8 hPa Calm     85 % 0.00 in /  0 mm
21:35 54.6 °F /  12.6 °C 50.5 °F /  10.3 °C 30.00 in /  1015.8 hPa SE 1.2 mph /  1.9 km/h   86 % 0.00 in /  0 mm
21:40 54.7 °F /  12.6 °C 50.3 °F /  10.2 °C 30.00 in /  1015.8 hPa Calm     85 % 0.00 in /  0 mm
21:45 54.7 °F /  12.6 °C 50.3 °F /  10.2 °C 30.01 in /  1016.1 hPa Calm     85 % 0.00 in /  0 mm
21:50 54.7 °F /  12.6 °C 50.3 °F /  10.2 °C 30.01 in /  1016.1 hPa Calm     85 % 0.00 in /  0 mm
21:55 54.5 °F /  12.5 °C 50.1 °F /  10.1 °C 30.01 in /  1016.1 hPa Calm     85 % 0.00 in /  0 mm
22:00 54.2 °F /  12.3 °C 49.8 °F /  9.9 °C 30.00 in /  1015.8 hPa Calm     85 % 0.00 in /  0 mm
22:05 53.9 °F /  12.2 °C 49.8 °F /  9.9 °C 30.00 in /  1015.8 hPa Calm     86 % 0.00 in /  0 mm
22:10 53.5 °F /  11.9 °C 49.4 °F /  9.7 °C 30.00 in /  1015.8 hPa Calm     86 % 0.00 in /  0 mm
22:15 53.1 °F /  11.7 °C 49.0 °F /  9.4 °C 30.00 in /  1015.8 hPa Calm     86 % 0.00 in /  0 mm
22:20 52.8 °F /  11.6 °C 49.0 °F /  9.4 °C 30.00 in /  1015.8 hPa Calm     87 % 0.00 in /  0 mm
22:25 52.6 °F /  11.4 °C 49.1 °F /  9.5 °C 30.00 in /  1015.8 hPa Calm     88 % 0.00 in /  0 mm
22:30 52.4 °F /  11.3 °C 48.9 °F /  9.4 °C 30.00 in /  1015.8 hPa Calm     88 % 0.00 in /  0 mm
22:35 52.2 °F /  11.2 °C 49.1 °F /  9.5 °C 30.00 in /  1015.8 hPa Calm     89 % 0.00 in /  0 mm
22:40 52.1 °F /  11.2 °C 48.7 °F /  9.3 °C 30.00 in /  1015.8 hPa Calm     88 % 0.00 in /  0 mm
22:45 51.7 °F /  10.9 °C 48.3 °F /  9.1 °C 30.00 in /  1015.8 hPa Calm     88 % 0.00 in /  0 mm
22:50 51.2 °F /  10.7 °C 47.5 °F /  8.6 °C 30.00 in /  1015.8 hPa Calm     87 % 0.00 in /  0 mm
22:55 50.8 °F /  10.4 °C 47.4 °F /  8.6 °C 30.01 in /  1016.1 hPa Calm     88 % 0.00 in /  0 mm
23:00 50.6 °F /  10.3 °C 47.5 °F /  8.6 °C 30.00 in /  1015.8 hPa Calm     89 % 0.00 in /  0 mm
23:05 50.5 °F /  10.3 °C 47.4 °F /  8.6 °C 30.01 in /  1016.1 hPa Calm     89 % 0.00 in /  0 mm
23:10 50.4 °F /  10.2 °C 47.3 °F /  8.5 °C 30.01 in /  1016.1 hPa Calm     89 % 0.00 in /  0 mm
23:15 50.2 °F /  10.1 °C 47.1 °F /  8.4 °C 30.01 in /  1016.1 hPa Calm     89 % 0.00 in /  0 mm
23:20 50.1 °F /  10.1 °C 47.3 °F /  8.5 °C 30.01 in /  1016.1 hPa Calm     90 % 0.00 in /  0 mm
23:25 50.0 °F /  10 °C 47.2 °F /  8.4 °C 30.01 in /  1016.1 hPa Calm     90 % 0.00 in /  0 mm
23:30 50.0 °F /  10 °C 47.2 °F /  8.4 °C 30.01 in /  1016.1 hPa Calm     90 % 0.00 in /  0 mm
23:35 50.4 °F /  10.2 °C 47.9 °F /  8.8 °C 30.01 in /  1016.1 hPa Calm     91 % 0.00 in /  0 mm
23:40 50.9 °F /  10.5 °C 48.4 °F /  9.1 °C 30.01 in /  1016.1 hPa Calm     91 % 0.00 in /  0 mm
23:45 51.4 °F /  10.8 °C 48.6 °F /  9.2 °C 30.01 in /  1016.1 hPa Calm     90 % 0.00 in /  0 mm
23:50 51.5 °F /  10.8 °C 48.4 °F /  9.1 °C 30.01 in /  1016.1 hPa Calm     89 % 0.00 in /  0 mm
23:55 51.8 °F /  11 °C 48.7 °F /  9.3 °C 30.01 in /  1016.1 hPa Calm     89 % 0.00 in /  0 mm
Park Place, Exeter, Tulare County, California, USA
Compliments of Weather Underground - 2.5 mb